sensor_id;sensor_type;location;lat;lon;timestamp;pressure;altitude;pressure_sealevel;temperature;humidity
6349;BME280;3207;42.648;23.406;2022-09-04T00:00:41;100086.75;;;22.67;59.80
6349;BME280;3207;42.648;23.406;2022-09-04T00:03:28;100091.69;;;22.70;59.69
6349;BME280;3207;42.648;23.406;2022-09-04T00:06:03;100093.47;;;22.62;60.06
6349;BME280;3207;42.648;23.406;2022-09-04T00:08:47;100091.81;;;22.61;60.24
6349;BME280;3207;42.648;23.406;2022-09-04T00:11:28;100091.88;;;22.68;59.99
6349;BME280;3207;42.648;23.406;2022-09-04T00:14:00;100091.69;;;22.70;60.02
6349;BME280;3207;42.648;23.406;2022-09-04T00:16:33;100085.47;;;22.62;60.18
6349;BME280;3207;42.648;23.406;2022-09-04T00:19:11;100092.28;;;22.65;60.18
6349;BME280;3207;42.648;23.406;2022-09-04T00:21:44;100098.44;;;22.66;60.35
6349;BME280;3207;42.648;23.406;2022-09-04T00:24:17;100094.47;;;22.61;60.23
6349;BME280;3207;42.648;23.406;2022-09-04T00:26:49;100086.66;;;22.60;60.34
6349;BME280;3207;42.648;23.406;2022-09-04T00:29:24;100095.75;;;22.66;60.28
6349;BME280;3207;42.648;23.406;2022-09-04T00:32:00;100103.13;;;22.63;60.22
6349;BME280;3207;42.648;23.406;2022-09-04T00:34:42;100106.31;;;22.59;60.50
6349;BME280;3207;42.648;23.406;2022-09-04T00:37:14;100100.94;;;22.52;60.84
6349;BME280;3207;42.648;23.406;2022-09-04T00:39:51;100102.94;;;22.50;60.90
6349;BME280;3207;42.648;23.406;2022-09-04T00:42:33;100100.94;;;22.52;61.09
6349;BME280;3207;42.648;23.406;2022-09-04T00:45:28;100087.78;;;22.51;61.01
6349;BME280;3207;42.648;23.406;2022-09-04T00:48:45;100088.25;;;22.40;61.49
6349;BME280;3207;42.648;23.406;2022-09-04T00:51:26;100089.84;;;22.34;61.46
6349;BME280;3207;42.648;23.406;2022-09-04T00:54:06;100090.28;;;22.38;61.73
6349;BME280;3207;42.648;23.406;2022-09-04T00:56:58;100087.53;;;22.31;61.78
6349;BME280;3207;42.648;23.406;2022-09-04T00:59:50;100090.94;;;22.25;61.98
6349;BME280;3207;42.648;23.406;2022-09-04T01:02:30;100092.31;;;22.21;62.34
6349;BME280;3207;42.648;23.406;2022-09-04T01:05:07;100092.31;;;22.21;62.58
6349;BME280;3207;42.648;23.406;2022-09-04T01:07:46;100083.34;;;22.22;62.84
6349;BME280;3207;42.648;23.406;2022-09-04T01:10:24;100090.22;;;22.16;63.11
6349;BME280;3207;42.648;23.406;2022-09-04T01:13:00;100091.56;;;22.27;62.88
6349;BME280;3207;42.648;23.406;2022-09-04T01:15:36;100081.09;;;22.40;62.85
6349;BME280;3207;42.648;23.406;2022-09-04T01:18:10;100092.28;;;22.50;62.03
6349;BME280;3207;42.648;23.406;2022-09-04T01:20:59;100087.41;;;22.54;62.15
6349;BME280;3207;42.648;23.406;2022-09-04T01:24:00;100081.91;;;22.55;61.78
6349;BME280;3207;42.648;23.406;2022-09-04T01:26:41;100086.22;;;22.56;61.75
6349;BME280;3207;42.648;23.406;2022-09-04T01:29:20;100089.16;;;22.61;61.71
6349;BME280;3207;42.648;23.406;2022-09-04T01:31:53;100096.78;;;22.64;61.50
6349;BME280;3207;42.648;23.406;2022-09-04T01:34:32;100099.34;;;22.58;61.56
6349;BME280;3207;42.648;23.406;2022-09-04T01:37:09;100100.66;;;22.47;61.83
6349;BME280;3207;42.648;23.406;2022-09-04T01:39:42;100100.75;;;22.39;62.49
6349;BME280;3207;42.648;23.406;2022-09-04T01:42:19;100097.91;;;22.26;63.03
6349;BME280;3207;42.648;23.406;2022-09-04T01:44:48;100108.13;;;22.08;63.88
6349;BME280;3207;42.648;23.406;2022-09-04T01:47:22;100112.38;;;21.94;65.12
6349;BME280;3207;42.648;23.406;2022-09-04T01:49:57;100114.03;;;21.80;66.01
6349;BME280;3207;42.648;23.406;2022-09-04T01:52:37;100115.66;;;21.67;66.46
6349;BME280;3207;42.648;23.406;2022-09-04T01:55:13;100120.06;;;21.60;66.92
6349;BME280;3207;42.648;23.406;2022-09-04T01:57:53;100120.56;;;21.55;67.31
6349;BME280;3207;42.648;23.406;2022-09-04T02:00:24;100114.03;;;21.43;67.43
6349;BME280;3207;42.648;23.406;2022-09-04T02:02:57;100126.81;;;21.47;67.84
6349;BME280;3207;42.648;23.406;2022-09-04T02:05:30;100132.94;;;21.48;67.99
6349;BME280;3207;42.648;23.406;2022-09-04T02:08:20;100135.22;;;21.51;68.05
6349;BME280;3207;42.648;23.406;2022-09-04T02:10:55;100136.53;;;21.55;68.15
6349;BME280;3207;42.648;23.406;2022-09-04T02:13:30;100140.84;;;21.56;67.85
6349;BME280;3207;42.648;23.406;2022-09-04T02:16:11;100124.72;;;21.58;67.89
6349;BME280;3207;42.648;23.406;2022-09-04T02:18:49;100130.31;;;21.63;67.79
6349;BME280;3207;42.648;23.406;2022-09-04T02:21:20;100127.97;;;21.68;67.64
6349;BME280;3207;42.648;23.406;2022-09-04T02:23:59;100126.31;;;21.67;67.77
6349;BME280;3207;42.648;23.406;2022-09-04T02:26:33;100129.06;;;21.73;67.67
6349;BME280;3207;42.648;23.406;2022-09-04T02:29:08;100127.41;;;21.72;67.71
6349;BME280;3207;42.648;23.406;2022-09-04T02:31:45;100131.28;;;21.84;67.41
6349;BME280;3207;42.648;23.406;2022-09-04T02:34:22;100130.00;;;21.95;67.13
6349;BME280;3207;42.648;23.406;2022-09-04T02:36:55;100126.34;;;21.96;67.28
6349;BME280;3207;42.648;23.406;2022-09-04T02:39:41;100136.41;;;22.09;66.76
6349;BME280;3207;42.648;23.406;2022-09-04T02:42:15;100133.00;;;22.15;66.65
6349;BME280;3207;42.648;23.406;2022-09-04T02:44:57;100144.59;;;22.22;66.53
6349;BME280;3207;42.648;23.406;2022-09-04T02:47:32;100137.50;;;22.29;66.09
6349;BME280;3207;42.648;23.406;2022-09-04T02:50:10;100135.97;;;22.35;65.97
6349;BME280;3207;42.648;23.406;2022-09-04T02:52:54;100149.53;;;22.40;65.94
6349;BME280;3207;42.648;23.406;2022-09-04T02:55:33;100146.34;;;22.44;65.56
6349;BME280;3207;42.648;23.406;2022-09-04T02:58:14;100124.56;;;22.41;65.56
6349;BME280;3207;42.648;23.406;2022-09-04T03:00:48;100121.72;;;22.42;65.19
6349;BME280;3207;42.648;23.406;2022-09-04T03:03:23;100124.72;;;22.39;65.20
6349;BME280;3207;42.648;23.406;2022-09-04T03:05:59;100128.22;;;22.40;65.28
6349;BME280;3207;42.648;23.406;2022-09-04T03:08:32;100130.81;;;22.33;65.06
6349;BME280;3207;42.648;23.406;2022-09-04T03:11:05;100125.75;;;22.23;65.31
6349;BME280;3207;42.648;23.406;2022-09-04T03:13:40;100124.38;;;22.13;65.97
6349;BME280;3207;42.648;23.406;2022-09-04T03:16:15;100119.13;;;22.05;65.96
6349;BME280;3207;42.648;23.406;2022-09-04T03:18:58;100136.75;;;22.06;66.27
6349;BME280;3207;42.648;23.406;2022-09-04T03:21:33;100121.59;;;22.06;66.46
6349;BME280;3207;42.648;23.406;2022-09-04T03:24:04;100128.50;;;22.01;66.55
6349;BME280;3207;42.648;23.406;2022-09-04T03:26:35;100130.41;;;21.92;67.10
6349;BME280;3207;42.648;23.406;2022-09-04T03:29:08;100131.22;;;21.92;67.53
6349;BME280;3207;42.648;23.406;2022-09-04T03:31:47;100135.84;;;21.99;67.58
6349;BME280;3207;42.648;23.406;2022-09-04T03:34:22;100135.94;;;22.05;67.34
6349;BME280;3207;42.648;23.406;2022-09-04T03:40:05;100147.78;;;22.03;67.12
6349;BME280;3207;42.648;23.406;2022-09-04T03:42:45;100138.41;;;22.07;67.25
6349;BME280;3207;42.648;23.406;2022-09-04T03:45:21;100136.88;;;22.12;67.10
6349;BME280;3207;42.648;23.406;2022-09-04T03:48:04;100141.63;;;22.17;67.01
6349;BME280;3207;42.648;23.406;2022-09-04T03:50:43;100141.94;;;22.22;66.76
6349;BME280;3207;42.648;23.406;2022-09-04T03:53:20;100138.69;;;22.26;66.75
6349;BME280;3207;42.648;23.406;2022-09-04T03:59:00;100144.50;;;22.30;66.31
6349;BME280;3207;42.648;23.406;2022-09-04T04:01:37;100155.44;;;22.35;66.28
6349;BME280;3207;42.648;23.406;2022-09-04T04:04:34;100156.53;;;22.41;66.36
6349;BME280;3207;42.648;23.406;2022-09-04T04:07:14;100145.50;;;22.44;66.15
6349;BME280;3207;42.648;23.406;2022-09-04T04:09:59;100155.78;;;22.47;66.13
6349;BME280;3207;42.648;23.406;2022-09-04T04:12:44;100149.63;;;22.46;65.75
6349;BME280;3207;42.648;23.406;2022-09-04T04:15:31;100152.28;;;22.46;65.99
6349;BME280;3207;42.648;23.406;2022-09-04T04:21:07;100157.81;;;22.45;66.10
6349;BME280;3207;42.648;23.406;2022-09-04T04:24:06;100151.84;;;22.43;66.11
6349;BME280;3207;42.648;23.406;2022-09-04T04:26:50;100159.84;;;22.43;66.11
6349;BME280;3207;42.648;23.406;2022-09-04T04:32:29;100177.09;;;22.47;66.46
6349;BME280;3207;42.648;23.406;2022-09-04T04:35:08;100184.53;;;22.51;66.08
6349;BME280;3207;42.648;23.406;2022-09-04T04:37:50;100180.88;;;22.52;66.21
6349;BME280;3207;42.648;23.406;2022-09-04T04:40:45;100186.19;;;22.52;66.28
6349;BME280;3207;42.648;23.406;2022-09-04T04:43:18;100194.84;;;22.54;66.35
6349;BME280;3207;42.648;23.406;2022-09-04T04:45:52;100196.69;;;22.54;66.49
6349;BME280;3207;42.648;23.406;2022-09-04T04:48:52;100207.16;;;22.55;66.50
6349;BME280;3207;42.648;23.406;2022-09-04T04:51:33;100206.94;;;22.57;66.43
6349;BME280;3207;42.648;23.406;2022-09-04T04:54:18;100195.56;;;22.48;66.80
6349;BME280;3207;42.648;23.406;2022-09-04T04:56:56;100204.47;;;22.41;66.76
6349;BME280;3207;42.648;23.406;2022-09-04T04:59:33;100199.59;;;22.30;67.09
6349;BME280;3207;42.648;23.406;2022-09-04T05:02:13;100203.53;;;22.19;67.48
6349;BME280;3207;42.648;23.406;2022-09-04T05:04:48;100195.72;;;22.03;68.01
6349;BME280;3207;42.648;23.406;2022-09-04T05:07:21;100221.69;;;22.01;68.35
6349;BME280;3207;42.648;23.406;2022-09-04T05:10:00;100214.94;;;21.90;68.69
6349;BME280;3207;42.648;23.406;2022-09-04T05:12:41;100218.47;;;21.82;69.16
6349;BME280;3207;42.648;23.406;2022-09-04T05:15:19;100222.16;;;21.81;69.66
6349;BME280;3207;42.648;23.406;2022-09-04T05:17:52;100237.47;;;21.79;69.65
6349;BME280;3207;42.648;23.406;2022-09-04T05:20:27;100234.81;;;21.79;69.85
6349;BME280;3207;42.648;23.406;2022-09-04T05:23:04;100230.16;;;21.81;70.04
6349;BME280;3207;42.648;23.406;2022-09-04T05:25:37;100226.66;;;21.81;69.92
6349;BME280;3207;42.648;23.406;2022-09-04T05:28:12;100233.09;;;21.86;69.75
6349;BME280;3207;42.648;23.406;2022-09-04T05:30:48;100230.72;;;21.91;69.72
6349;BME280;3207;42.648;23.406;2022-09-04T05:33:22;100229.16;;;21.97;69.39
6349;BME280;3207;42.648;23.406;2022-09-04T05:35:57;100222.69;;;22.00;69.18
6349;BME280;3207;42.648;23.406;2022-09-04T05:38:31;100234.44;;;22.05;68.73
6349;BME280;3207;42.648;23.406;2022-09-04T05:41:13;100228.59;;;22.10;68.72
6349;BME280;3207;42.648;23.406;2022-09-04T05:44:01;100238.25;;;22.25;68.55
6349;BME280;3207;42.648;23.406;2022-09-04T05:46:44;100241.69;;;22.34;68.17
6349;BME280;3207;42.648;23.406;2022-09-04T05:49:20;100239.66;;;22.51;67.37
6349;BME280;3207;42.648;23.406;2022-09-04T05:55:16;100241.34;;;22.96;66.10
6349;BME280;3207;42.648;23.406;2022-09-04T05:57:57;100231.81;;;23.23;65.31
6349;BME280;3207;42.648;23.406;2022-09-04T06:00:36;100204.31;;;23.22;64.35
6349;BME280;3207;42.648;23.406;2022-09-04T06:06:19;100252.00;;;23.83;62.95
6349;BME280;3207;42.648;23.406;2022-09-04T06:09:11;100261.09;;;24.16;62.10
6349;BME280;3207;42.648;23.406;2022-09-04T06:11:54;100259.00;;;24.33;61.40
6349;BME280;3207;42.648;23.406;2022-09-04T06:14:48;100268.00;;;24.53;60.34
6349;BME280;3207;42.648;23.406;2022-09-04T06:17:32;100272.81;;;24.64;59.75
6349;BME280;3207;42.648;23.406;2022-09-04T06:20:35;100280.47;;;24.74;59.35
6349;BME280;3207;42.648;23.406;2022-09-04T06:23:19;100285.47;;;24.84;59.01
6349;BME280;3207;42.648;23.406;2022-09-04T06:26:14;100278.94;;;24.93;58.63
6349;BME280;3207;42.648;23.406;2022-09-04T06:29:02;100299.22;;;25.08;57.90
6349;BME280;3207;42.648;23.406;2022-09-04T06:31:52;100294.53;;;25.24;57.99
6349;BME280;3207;42.648;23.406;2022-09-04T06:34:35;100297.84;;;25.32;57.97
6349;BME280;3207;42.648;23.406;2022-09-04T06:37:19;100296.44;;;25.36;58.20
6349;BME280;3207;42.648;23.406;2022-09-04T06:40:02;100291.72;;;25.45;58.28
6349;BME280;3207;42.648;23.406;2022-09-04T06:42:49;100299.31;;;26.15;57.47
6349;BME280;3207;42.648;23.406;2022-09-04T06:45:24;100290.25;;;28.59;52.35
6349;BME280;3207;42.648;23.406;2022-09-04T06:48:05;100307.69;;;31.64;44.09
6349;BME280;3207;42.648;23.406;2022-09-04T06:50:44;100313.06;;;34.17;37.37
6349;BME280;3207;42.648;23.406;2022-09-04T06:53:17;100318.75;;;34.85;35.52
6349;BME280;3207;42.648;23.406;2022-09-04T06:55:56;100318.81;;;34.53;35.50
6349;BME280;3207;42.648;23.406;2022-09-04T06:58:46;100315.75;;;34.86;34.55
6349;BME280;3207;42.648;23.406;2022-09-04T07:01:23;100323.41;;;36.94;31.78
6349;BME280;3207;42.648;23.406;2022-09-04T07:04:04;100318.91;;;39.22;28.19
6349;BME280;3207;42.648;23.406;2022-09-04T07:06:48;100326.44;;;41.11;25.19
6349;BME280;3207;42.648;23.406;2022-09-04T07:09:20;100339.56;;;42.76;23.58
6349;BME280;3207;42.648;23.406;2022-09-04T07:12:18;100340.22;;;44.33;21.87
6349;BME280;3207;42.648;23.406;2022-09-04T07:18:16;100351.66;;;47.02;18.67
6349;BME280;3207;42.648;23.406;2022-09-04T07:20:58;100360.47;;;47.96;17.86
6349;BME280;3207;42.648;23.406;2022-09-04T07:23:35;100352.50;;;48.85;17.02
6349;BME280;3207;42.648;23.406;2022-09-04T07:26:14;100362.66;;;48.93;17.00
6349;BME280;3207;42.648;23.406;2022-09-04T07:28:58;100369.19;;;47.06;17.75
6349;BME280;3207;42.648;23.406;2022-09-04T07:31:37;100359.34;;;44.55;19.66
6349;BME280;3207;42.648;23.406;2022-09-04T07:34:13;100349.91;;;42.39;21.75
6349;BME280;3207;42.648;23.406;2022-09-04T07:36:50;100341.34;;;40.50;23.83
6349;BME280;3207;42.648;23.406;2022-09-04T07:39:23;100346.00;;;39.00;25.62
6349;BME280;3207;42.648;23.406;2022-09-04T07:41:59;100350.06;;;37.77;26.69
6349;BME280;3207;42.648;23.406;2022-09-04T07:44:35;100337.91;;;36.74;28.35
6349;BME280;3207;42.648;23.406;2022-09-04T07:47:08;100342.81;;;35.91;29.43
6349;BME280;3207;42.648;23.406;2022-09-04T07:49:48;100346.34;;;35.14;30.96
6349;BME280;3207;42.648;23.406;2022-09-04T07:52:33;100348.50;;;34.33;31.67
6349;BME280;3207;42.648;23.406;2022-09-04T07:55:22;100342.56;;;33.55;33.32
6349;BME280;3207;42.648;23.406;2022-09-04T07:58:17;100348.91;;;33.00;34.42
6349;BME280;3207;42.648;23.406;2022-09-04T08:01:00;100344.91;;;32.69;35.35
6349;BME280;3207;42.648;23.406;2022-09-04T08:03:46;100341.19;;;33.53;34.89
6349;BME280;3207;42.648;23.406;2022-09-04T08:06:20;100347.09;;;37.19;29.54
6349;BME280;3207;42.648;23.406;2022-09-04T08:09:28;100356.66;;;41.39;24.46
6349;BME280;3207;42.648;23.406;2022-09-04T08:12:14;100360.97;;;42.03;23.32
6349;BME280;3207;42.648;23.406;2022-09-04T08:14:53;100360.16;;;42.25;22.39
6349;BME280;3207;42.648;23.406;2022-09-04T08:17:49;100363.78;;;42.12;22.78
6349;BME280;3207;42.648;23.406;2022-09-04T08:20:31;100363.72;;;42.03;22.15
6349;BME280;3207;42.648;23.406;2022-09-04T08:23:25;100363.31;;;41.74;22.72
6349;BME280;3207;42.648;23.406;2022-09-04T08:26:05;100366.72;;;41.29;23.16
6349;BME280;3207;42.648;23.406;2022-09-04T08:28:49;100367.66;;;40.51;23.61
6349;BME280;3207;42.648;23.406;2022-09-04T08:31:28;100377.66;;;39.72;24.23
6349;BME280;3207;42.648;23.406;2022-09-04T08:37:06;100384.00;;;38.43;26.17
6349;BME280;3207;42.648;23.406;2022-09-04T08:39:42;100373.59;;;38.06;26.60
6349;BME280;3207;42.648;23.406;2022-09-04T08:45:31;100384.19;;;42.64;22.21
6349;BME280;3207;42.648;23.406;2022-09-04T08:51:37;100411.50;;;48.94;16.68
6349;BME280;3207;42.648;23.406;2022-09-04T08:57:27;100412.22;;;47.52;17.22
6349;BME280;3207;42.648;23.406;2022-09-04T09:00:07;100399.22;;;47.04;17.49
6349;BME280;3207;42.648;23.406;2022-09-04T09:03:27;100409.31;;;48.00;16.85
6349;BME280;3207;42.648;23.406;2022-09-04T09:09:31;100406.63;;;48.32;16.24
6349;BME280;3207;42.648;23.406;2022-09-04T09:12:44;100396.63;;;46.74;17.72
6349;BME280;3207;42.648;23.406;2022-09-04T09:15:28;100401.78;;;45.56;18.83
6349;BME280;3207;42.648;23.406;2022-09-04T09:18:01;100394.53;;;44.67;19.25
6349;BME280;3207;42.648;23.406;2022-09-04T09:20:29;100400.16;;;45.26;18.69
6349;BME280;3207;42.648;23.406;2022-09-04T09:23:18;100382.94;;;45.49;17.68
6349;BME280;3207;42.648;23.406;2022-09-04T09:25:50;100397.03;;;44.42;19.10
6349;BME280;3207;42.648;23.406;2022-09-04T09:28:48;100402.72;;;43.94;19.36
6349;BME280;3207;42.648;23.406;2022-09-04T09:38:18;100378.19;;;43.50;18.76
6349;BME280;3207;42.648;23.406;2022-09-04T09:41:22;100386.56;;;43.27;19.04
6349;BME280;3207;42.648;23.406;2022-09-04T09:44:31;100377.59;;;43.13;19.22
6349;BME280;3207;42.648;23.406;2022-09-04T09:47:27;100386.59;;;43.44;18.64
6349;BME280;3207;42.648;23.406;2022-09-04T09:50:19;100387.56;;;43.31;18.92
6349;BME280;3207;42.648;23.406;2022-09-04T09:53:10;100382.25;;;43.04;19.12
6349;BME280;3207;42.648;23.406;2022-09-04T09:56:12;100382.38;;;43.21;19.25
6349;BME280;3207;42.648;23.406;2022-09-04T09:59:37;100382.94;;;43.66;18.59
6349;BME280;3207;42.648;23.406;2022-09-04T10:03:05;100343.72;;;43.69;18.20
6349;BME280;3207;42.648;23.406;2022-09-04T10:06:07;100378.81;;;43.38;18.21
6349;BME280;3207;42.648;23.406;2022-09-04T10:09:22;100382.38;;;43.30;18.17
6349;BME280;3207;42.648;23.406;2022-09-04T10:12:18;100366.75;;;43.08;18.45
6349;BME280;3207;42.648;23.406;2022-09-04T10:15:21;100378.97;;;42.85;18.78
6349;BME280;3207;42.648;23.406;2022-09-04T10:21:18;100373.13;;;43.34;18.27
6349;BME280;3207;42.648;23.406;2022-09-04T10:27:09;100345.91;;;42.45;18.92
6349;BME280;3207;42.648;23.406;2022-09-04T10:29:57;100365.47;;;42.44;19.56
6349;BME280;3207;42.648;23.406;2022-09-04T10:33:18;100369.44;;;42.91;18.93
6349;BME280;3207;42.648;23.406;2022-09-04T10:36:07;100365.34;;;42.80;18.67
6349;BME280;3207;42.648;23.406;2022-09-04T10:38:39;100344.59;;;42.43;18.66
6349;BME280;3207;42.648;23.406;2022-09-04T10:41:33;100359.84;;;42.49;18.62
6349;BME280;3207;42.648;23.406;2022-09-04T10:44:23;100360.25;;;42.73;18.66
6349;BME280;3207;42.648;23.406;2022-09-04T10:47:01;100358.47;;;42.68;18.88
6349;BME280;3207;42.648;23.406;2022-09-04T10:50:10;100359.44;;;43.03;18.60
6349;BME280;3207;42.648;23.406;2022-09-04T10:56:11;100351.25;;;41.61;20.19
6349;BME280;3207;42.648;23.406;2022-09-04T10:59:18;100351.91;;;41.66;20.70
6349;BME280;3207;42.648;23.406;2022-09-04T11:02:02;100336.25;;;41.17;20.13
6349;BME280;3207;42.648;23.406;2022-09-04T11:08:06;100341.19;;;41.02;20.07
6349;BME280;3207;42.648;23.406;2022-09-04T11:10:47;100342.44;;;41.09;20.83
6349;BME280;3207;42.648;23.406;2022-09-04T11:20:20;100325.19;;;40.16;21.25
6349;BME280;3207;42.648;23.406;2022-09-04T11:29:21;100326.44;;;38.88;22.68
6349;BME280;3207;42.648;23.406;2022-09-04T11:32:06;100309.38;;;37.80;23.82
6349;BME280;3207;42.648;23.406;2022-09-04T11:37:53;100304.63;;;35.55;26.66
6349;BME280;3207;42.648;23.406;2022-09-04T11:49:55;100287.28;;;33.34;29.44
6349;BME280;3207;42.648;23.406;2022-09-04T11:52:39;100284.13;;;33.21;30.01
6349;BME280;3207;42.648;23.406;2022-09-04T11:55:45;100273.47;;;33.14;30.14
6349;BME280;3207;42.648;23.406;2022-09-04T12:01:36;100270.09;;;33.24;30.31
6349;BME280;3207;42.648;23.406;2022-09-04T12:04:27;100273.84;;;33.44;30.57
6349;BME280;3207;42.648;23.406;2022-09-04T12:07:07;100280.53;;;33.64;29.70
6349;BME280;3207;42.648;23.406;2022-09-04T12:10:03;100266.00;;;33.48;30.14
6349;BME280;3207;42.648;23.406;2022-09-04T12:22:20;100260.19;;;33.34;30.21
6349;BME280;3207;42.648;23.406;2022-09-04T12:25:13;100257.16;;;33.09;30.42
6349;BME280;3207;42.648;23.406;2022-09-04T12:30:58;100258.78;;;32.50;31.54
6349;BME280;3207;42.648;23.406;2022-09-04T12:33:54;100260.34;;;32.46;32.05
6349;BME280;3207;42.648;23.406;2022-09-04T12:40:04;100252.19;;;33.01;31.24
6349;BME280;3207;42.648;23.406;2022-09-04T12:42:41;100259.47;;;33.22;30.88
6349;BME280;3207;42.648;23.406;2022-09-04T12:45:20;100234.47;;;32.71;31.09
6349;BME280;3207;42.648;23.406;2022-09-04T12:47:57;100260.38;;;32.84;31.42
6349;BME280;3207;42.648;23.406;2022-09-04T12:50:34;100256.66;;;33.12;31.15
6349;BME280;3207;42.648;23.406;2022-09-04T12:53:16;100251.16;;;32.85;31.71
6349;BME280;3207;42.648;23.406;2022-09-04T12:55:54;100254.78;;;32.52;32.59
6349;BME280;3207;42.648;23.406;2022-09-04T12:58:35;100260.53;;;32.39;32.92
6349;BME280;3207;42.648;23.406;2022-09-04T13:01:10;100254.53;;;32.37;33.25
6349;BME280;3207;42.648;23.406;2022-09-04T13:03:47;100257.53;;;32.19;33.22
6349;BME280;3207;42.648;23.406;2022-09-04T13:06:24;100260.25;;;31.90;33.53
6349;BME280;3207;42.648;23.406;2022-09-04T13:09:05;100256.41;;;31.58;34.74
6349;BME280;3207;42.648;23.406;2022-09-04T13:11:49;100251.47;;;31.38;34.49
6349;BME280;3207;42.648;23.406;2022-09-04T13:17:18;100261.25;;;31.27;35.49
6349;BME280;3207;42.648;23.406;2022-09-04T13:19:52;100259.00;;;31.36;35.25
6349;BME280;3207;42.648;23.406;2022-09-04T13:22:31;100265.66;;;31.17;35.73
6349;BME280;3207;42.648;23.406;2022-09-04T13:25:10;100259.19;;;31.06;36.56
6349;BME280;3207;42.648;23.406;2022-09-04T13:27:53;100253.84;;;31.35;35.43
6349;BME280;3207;42.648;23.406;2022-09-04T13:30:24;100252.88;;;31.41;35.35
6349;BME280;3207;42.648;23.406;2022-09-04T13:33:02;100261.13;;;31.62;34.55
6349;BME280;3207;42.648;23.406;2022-09-04T13:35:48;100254.03;;;31.73;34.64
6349;BME280;3207;42.648;23.406;2022-09-04T13:38:38;100258.78;;;31.83;34.22
6349;BME280;3207;42.648;23.406;2022-09-04T13:47:19;100263.66;;;31.97;33.68
6349;BME280;3207;42.648;23.406;2022-09-04T13:49:49;100265.84;;;31.67;34.91
6349;BME280;3207;42.648;23.406;2022-09-04T13:52:21;100263.84;;;31.34;35.19
6349;BME280;3207;42.648;23.406;2022-09-04T13:54:57;100269.66;;;31.03;36.39
6349;BME280;3207;42.648;23.406;2022-09-04T13:57:26;100277.59;;;30.69;36.91
6349;BME280;3207;42.648;23.406;2022-09-04T13:59:56;100275.25;;;30.49;37.58
6349;BME280;3207;42.648;23.406;2022-09-04T14:02:26;100280.72;;;30.43;37.65
6349;BME280;3207;42.648;23.406;2022-09-04T14:05:00;100280.63;;;30.38;37.77
6349;BME280;3207;42.648;23.406;2022-09-04T14:07:32;100283.78;;;30.23;38.22
6349;BME280;3207;42.648;23.406;2022-09-04T14:10:03;100285.63;;;30.11;38.29
6349;BME280;3207;42.648;23.406;2022-09-04T14:12:45;100286.34;;;30.06;38.42
6349;BME280;3207;42.648;23.406;2022-09-04T14:18:48;100282.19;;;29.92;39.68
6349;BME280;3207;42.648;23.406;2022-09-04T14:21:29;100281.25;;;29.87;39.75
6349;BME280;3207;42.648;23.406;2022-09-04T14:24:05;100270.91;;;29.83;39.13
6349;BME280;3207;42.648;23.406;2022-09-04T14:26:42;100278.16;;;29.71;39.13
6349;BME280;3207;42.648;23.406;2022-09-04T14:29:20;100281.16;;;29.63;39.89
6349;BME280;3207;42.648;23.406;2022-09-04T14:31:55;100278.03;;;29.78;39.21
6349;BME280;3207;42.648;23.406;2022-09-04T14:34:32;100270.78;;;29.90;38.87
6349;BME280;3207;42.648;23.406;2022-09-04T14:37:12;100268.44;;;29.82;38.82
6349;BME280;3207;42.648;23.406;2022-09-04T14:39:46;100274.66;;;29.82;39.41
6349;BME280;3207;42.648;23.406;2022-09-04T14:42:23;100275.72;;;29.81;39.16
6349;BME280;3207;42.648;23.406;2022-09-04T14:45:14;100272.28;;;29.74;38.92
6349;BME280;3207;42.648;23.406;2022-09-04T14:47:45;100271.81;;;29.77;38.83
6349;BME280;3207;42.648;23.406;2022-09-04T14:50:22;100289.63;;;29.78;38.78
6349;BME280;3207;42.648;23.406;2022-09-04T14:52:55;100281.09;;;29.81;39.02
6349;BME280;3207;42.648;23.406;2022-09-04T14:55:25;100289.63;;;29.97;38.85
6349;BME280;3207;42.648;23.406;2022-09-04T14:57:56;100287.63;;;30.04;38.20
6349;BME280;3207;42.648;23.406;2022-09-04T15:00:25;100284.56;;;30.00;38.38
6349;BME280;3207;42.648;23.406;2022-09-04T15:02:59;100292.69;;;30.12;37.79
6349;BME280;3207;42.648;23.406;2022-09-04T15:05:32;100293.97;;;30.21;37.95
6349;BME280;3207;42.648;23.406;2022-09-04T15:08:02;100298.09;;;30.24;38.09
6349;BME280;3207;42.648;23.406;2022-09-04T15:10:46;100301.25;;;30.32;37.52
6349;BME280;3207;42.648;23.406;2022-09-04T15:13:29;100309.38;;;30.44;37.24
6349;BME280;3207;42.648;23.406;2022-09-04T15:16:07;100314.88;;;30.37;37.25
6349;BME280;3207;42.648;23.406;2022-09-04T15:18:48;100305.50;;;30.51;37.25
6349;BME280;3207;42.648;23.406;2022-09-04T15:21:25;100308.00;;;30.53;36.87
6349;BME280;3207;42.648;23.406;2022-09-04T15:24:00;100314.22;;;30.53;37.04
6349;BME280;3207;42.648;23.406;2022-09-04T15:26:32;100314.06;;;30.37;36.31
6349;BME280;3207;42.648;23.406;2022-09-04T15:29:05;100308.66;;;30.25;35.97
6349;BME280;3207;42.648;23.406;2022-09-04T15:31:34;100320.25;;;30.14;36.67
6349;BME280;3207;42.648;23.406;2022-09-04T15:34:05;100310.63;;;30.06;37.05
6349;BME280;3207;42.648;23.406;2022-09-04T15:36:33;100318.06;;;29.93;37.10
6349;BME280;3207;42.648;23.406;2022-09-04T15:39:06;100323.84;;;29.66;37.56
6349;BME280;3207;42.648;23.406;2022-09-04T15:41:40;100313.84;;;29.55;38.03
6349;BME280;3207;42.648;23.406;2022-09-04T15:44:15;100324.09;;;29.46;38.33
6349;BME280;3207;42.648;23.406;2022-09-04T15:46:47;100323.56;;;29.38;38.83
6349;BME280;3207;42.648;23.406;2022-09-04T15:49:23;100322.94;;;29.36;38.82
6349;BME280;3207;42.648;23.406;2022-09-04T15:52:00;100330.00;;;29.37;39.15
6349;BME280;3207;42.648;23.406;2022-09-04T15:54:51;100339.94;;;29.36;39.52
6349;BME280;3207;42.648;23.406;2022-09-04T15:57:25;100329.91;;;29.25;39.45
6349;BME280;3207;42.648;23.406;2022-09-04T16:00:01;100328.03;;;29.26;40.48
6349;BME280;3207;42.648;23.406;2022-09-04T16:02:36;100329.84;;;29.13;40.31
6349;BME280;3207;42.648;23.406;2022-09-04T16:05:14;100333.31;;;29.02;40.61
6349;BME280;3207;42.648;23.406;2022-09-04T16:07:47;100338.97;;;28.94;40.75